Time;durP1;ratioP1;P1;durP2;ratioP2;P2;SDS_P1;SDS_P2;PMS_P1;PMS_P2;Temp;Humidity;BMP_temperature;BMP_pressure;BME280_temperature;BME280_humidity;BME280_pressure;Samples;Min_cycle;Max_cycle;Signal;HPM_P1;HPM_P2
2022/04/30 00:01:19;;;;;;;15.23;10.25;;;;;;;14.73;76.21;100541.47;5029191;28;20077;-29
2022/04/30 00:03:44;;;;;;;14.90;11.13;;;;;;;14.59;76.61;100530.16;5028943;28;20508;-34
2022/04/30 00:06:10;;;;;;;17.20;10.13;;;;;;;15.01;75.49;100558.69;5028896;28;20025;-35
2022/04/30 00:08:35;;;;;;;15.23;10.10;;;;;;;14.80;75.93;100552.88;5028648;28;20057;-30
2022/04/30 00:11:01;;;;;;;13.48;10.20;;;;;;;14.70;75.50;100552.66;5028815;28;20029;-31
2022/04/30 00:13:26;;;;;;;13.07;8.98;;;;;;;14.68;75.42;100546.72;5028623;28;20087;-28
2022/04/30 00:15:52;;;;;;;13.32;9.90;;;;;;;14.64;76.36;100551.72;5028692;28;20033;-34
2022/04/30 00:18:17;;;;;;;13.30;9.48;;;;;;;14.63;76.11;100536.69;5028689;28;20421;-32
2022/04/30 00:20:46;;;;;;;13.07;10.30;;;;;;;14.62;76.72;100544.97;5028507;28;20053;-29
2022/04/30 00:23:19;;;;;;;15.20;10.43;;;;;;;14.62;76.34;100561.06;5028608;28;20037;-33
2022/04/30 00:25:49;;;;;;;14.80;10.18;;;;;;;14.60;76.11;100541.69;5028785;28;20029;-29
2022/04/30 00:28:16;;;;;;;16.17;10.57;;;;;;;14.54;76.26;100545.28;5028305;28;20033;-28
2022/04/30 00:30:44;;;;;;;14.45;10.40;;;;;;;14.77;75.69;100558.75;5028249;28;20033;-29
2022/04/30 00:33:10;;;;;;;12.40;9.52;;;;;;;14.57;76.17;100550.22;5027192;28;20029;-29
2022/04/30 00:35:36;;;;;;;17.30;11.75;;;;;;;14.63;76.33;100554.66;5027821;28;20037;-29
2022/04/30 00:38:02;;;;;;;12.98;9.82;;;;;;;14.55;76.36;100549.59;5028907;28;20033;-29
2022/04/30 00:40:27;;;;;;;15.05;10.85;;;;;;;14.46;77.18;100547.28;5028063;28;20395;-29
2022/04/30 00:42:53;;;;;;;14.52;9.70;;;;;;;14.39;76.55;100530.44;5028202;28;20033;-31
2022/04/30 00:45:20;;;;;;;14.55;10.13;;;;;;;14.42;76.60;100535.34;5028207;28;20040;-28
2022/04/30 00:47:46;;;;;;;16.52;10.30;;;;;;;14.38;76.83;100534.16;5028363;28;20105;-30
2022/04/30 00:50:15;;;;;;;13.07;10.40;;;;;;;14.25;77.66;100548.63;5026570;28;20082;-37
2022/04/30 00:52:45;;;;;;;13.10;9.35;;;;;;;14.19;77.75;100551.44;5027786;28;20515;-30
2022/04/30 00:55:12;;;;;;;13.85;9.55;;;;;;;14.07;78.32;100525.38;5026860;28;20029;-29
2022/04/30 00:57:43;;;;;;;14.48;9.88;;;;;;;14.30;78.32;100537.19;5027955;28;20045;-29
2022/04/30 01:00:10;;;;;;;10.68;8.77;;;;;;;14.24;78.29;100538.13;5028182;28;20033;-29
2022/04/30 01:02:36;;;;;;;13.05;9.35;;;;;;;14.15;78.41;100542.22;5027699;28;20087;-30
2022/04/30 01:05:02;;;;;;;13.23;8.93;;;;;;;14.12;78.52;100542.66;5028167;28;20033;-30
2022/04/30 01:07:30;;;;;;;12.77;9.43;;;;;;;14.05;78.71;100546.25;5027933;28;20040;-33
2022/04/30 01:09:56;;;;;;;12.93;9.27;;;;;;;13.93;79.65;100537.38;5027987;28;20021;-29
2022/04/30 01:12:23;;;;;;;12.48;8.98;;;;;;;14.02;79.33;100522.59;5026403;28;20040;-30
2022/04/30 01:14:51;;;;;;;14.68;10.13;;;;;;;13.89;79.71;100528.16;5027604;28;20747;-29
2022/04/30 01:17:17;;;;;;;13.68;9.75;;;;;;;13.93;78.89;100531.19;5027304;28;20099;-29
2022/04/30 01:19:43;;;;;;;13.07;9.07;;;;;;;14.04;78.99;100527.75;5027890;28;20087;-30
2022/04/30 01:22:33;;;;;;;12.73;8.98;;;;;;;13.92;79.60;100530.38;5027808;28;20041;-30
2022/04/30 01:25:00;;;;;;;13.85;9.13;;;;;;;13.63;80.24;100519.47;5026213;28;20099;-29
2022/04/30 01:27:27;;;;;;;14.88;10.35;;;;;;;13.68;80.94;100523.31;5027159;28;20090;-29
2022/04/30 01:29:54;;;;;;;14.20;9.07;;;;;;;13.66;79.89;100529.72;5027260;28;20030;-28
2022/04/30 01:37:58;;;;;;;13.95;9.57;;;;;;;13.72;79.86;100519.94;5027089;28;20081;-31
2022/04/30 01:40:23;;;;;;;12.45;9.18;;;;;;;13.55;81.11;100516.28;5025981;28;20025;-28
2022/04/30 01:42:49;;;;;;;10.75;9.07;;;;;;;13.56;81.32;100526.75;5027073;28;20115;-29
2022/04/30 01:45:16;;;;;;;12.40;9.52;;;;;;;13.55;81.76;100511.75;5027408;28;20049;-30
2022/04/30 01:47:46;;;;;;;15.00;9.77;;;;;;;13.75;80.18;100524.88;5025849;28;20030;-29
2022/04/30 01:50:12;;;;;;;15.43;9.60;;;;;;;13.75;79.89;100516.00;5027083;28;20044;-30
2022/04/30 01:52:39;;;;;;;16.42;10.00;;;;;;;13.58;80.56;100516.63;5026686;28;20032;-31
2022/04/30 01:55:05;;;;;;;14.35;9.00;;;;;;;13.73;80.53;100518.09;5027392;28;20821;-29
2022/04/30 01:57:30;;;;;;;14.80;9.88;;;;;;;13.64;80.79;100505.00;5027275;28;20065;-29
2022/04/30 01:59:57;;;;;;;13.30;9.15;;;;;;;13.71;80.35;100517.50;5026986;28;20112;-28
2022/04/30 02:02:26;;;;;;;13.93;9.70;;;;;;;13.65;80.75;100503.16;5027217;28;20114;-29
2022/04/30 02:04:54;;;;;;;14.93;9.43;;;;;;;13.51;81.92;100518.59;5026832;28;20095;-28
2022/04/30 02:07:20;;;;;;;13.30;9.05;;;;;;;13.48;82.09;100511.00;5027134;28;20037;-29
2022/04/30 02:09:47;;;;;;;13.35;9.32;;;;;;;13.48;82.63;100519.03;5025932;28;20119;-29
2022/04/30 02:12:13;;;;;;;13.38;9.30;;;;;;;13.38;82.85;100497.34;5025836;28;20029;-30
2022/04/30 02:14:44;;;;;;;13.02;9.73;;;;;;;13.34;83.27;100518.44;5026895;28;20378;-29
2022/04/30 02:17:11;;;;;;;14.43;9.93;;;;;;;13.43;82.61;100509.00;5027078;28;20033;-30
2022/04/30 02:22:25;;;;;;;15.27;10.52;;;;;;;13.71;80.46;100506.78;5027020;28;20044;-28
2022/04/30 02:24:50;;;;;;;13.45;9.90;;;;;;;13.52;80.63;100493.44;5026944;28;20025;-32
2022/04/30 02:27:17;;;;;;;16.13;9.43;;;;;;;13.58;81.33;100508.59;5026789;28;20076;-32
2022/04/30 02:29:44;;;;;;;13.30;9.75;;;;;;;13.51;81.94;100501.72;5026773;28;20486;-30
2022/04/30 02:32:09;;;;;;;12.65;9.80;;;;;;;13.46;82.61;100516.63;5026582;28;20037;-30
2022/04/30 02:34:35;;;;;;;16.02;10.77;;;;;;;13.53;83.01;100500.44;5027185;28;20022;-29
2022/04/30 02:37:03;;;;;;;14.55;10.05;;;;;;;13.54;81.59;100491.34;5026270;28;20053;-30
2022/04/30 02:39:30;;;;;;;12.73;9.60;;;;;;;13.54;82.15;100502.06;5028646;28;20472;-31
2022/04/30 02:41:55;;;;;;;14.68;10.02;;;;;;;13.59;81.93;100486.13;5030385;28;20053;-28
2022/04/30 02:44:23;;;;;;;14.90;9.50;;;;;;;13.70;81.94;100494.44;5030702;28;20061;-31
2022/04/30 02:46:49;;;;;;;13.75;9.10;;;;;;;13.73;81.21;100494.78;5030009;28;20132;-37
2022/04/30 02:49:16;;;;;;;12.63;9.98;;;;;;;13.59;81.24;100480.78;5030313;28;20059;-31
2022/04/30 02:51:41;;;;;;;13.73;9.97;;;;;;;13.76;80.18;100485.47;5030437;28;20163;-29
2022/04/30 02:54:07;;;;;;;13.20;10.05;;;;;;;13.68;80.74;100496.53;5030981;28;20033;-30
2022/04/30 02:56:32;;;;;;;13.93;10.10;;;;;;;13.53;81.61;100488.91;5030192;28;20425;-29
2022/04/30 03:01:42;;;;;;;16.73;10.00;;;;;;;13.71;81.27;100488.00;5030198;28;20032;-28
2022/04/30 03:04:07;;;;;;;14.60;9.77;;;;;;;13.87;80.12;100495.38;5030280;28;20026;-29
2022/04/30 03:06:36;;;;;;;13.98;11.35;;;;;;;13.90;80.65;100505.66;5030162;28;20418;-28
2022/04/30 03:09:02;;;;;;;13.60;10.98;;;;;;;13.69;81.11;100498.97;5029535;28;20025;-31
2022/04/30 03:11:28;;;;;;;17.73;11.75;;;;;;;13.43;81.79;100500.97;5029968;28;20205;-32
2022/04/30 03:13:53;;;;;;;17.20;12.90;;;;;;;13.42;81.73;100494.00;5029672;28;20064;-28
2022/04/30 03:21:47;;;;;;;18.88;11.15;;;;;;;13.40;82.92;100489.88;5029902;28;20040;-33
2022/04/30 03:24:18;;;;;;;14.90;11.07;;;;;;;13.40;82.61;100500.59;5029563;28;20413;-30
2022/04/30 03:26:48;;;;;;;15.77;11.70;;;;;;;13.52;81.81;100496.09;5028358;28;20112;-30
2022/04/30 03:29:15;;;;;;;19.60;12.13;;;;;;;13.54;83.42;100520.00;5029425;28;20135;-29
2022/04/30 03:31:41;;;;;;;17.80;11.85;;;;;;;13.36;83.98;100505.63;5029630;28;20022;-30
2022/04/30 03:34:08;;;;;;;16.85;11.70;;;;;;;13.38;83.06;100500.00;5029572;28;20025;-28
2022/04/30 03:36:34;;;;;;;17.90;13.00;;;;;;;13.58;81.87;100505.91;5029473;28;20057;-29
2022/04/30 03:39:02;;;;;;;17.83;12.60;;;;;;;13.68;81.71;100523.31;5029096;28;20146;-29
2022/04/30 03:41:28;;;;;;;17.45;12.90;;;;;;;13.58;81.43;100497.06;5027965;28;20029;-29
2022/04/30 03:43:53;;;;;;;16.88;12.18;;;;;;;13.24;85.12;100526.94;5029411;28;20512;-31
2022/04/30 03:46:19;;;;;;;25.55;12.95;;;;;;;13.41;83.87;100512.97;5029292;28;20029;-29
2022/04/30 03:48:44;;;;;;;17.88;13.60;;;;;;;13.38;83.54;100529.47;5028882;28;20142;-31
2022/04/30 03:51:10;;;;;;;26.50;13.65;;;;;;;13.58;83.52;100523.88;5028697;28;20119;-31
2022/04/30 03:53:35;;;;;;;15.35;12.27;;;;;;;13.69;83.03;100524.94;5028896;28;20084;-29
2022/04/30 03:56:01;;;;;;;26.02;12.10;;;;;;;13.56;83.71;100532.13;5028999;28;20069;-35
2022/04/30 03:58:27;;;;;;;19.10;12.43;;;;;;;13.49;84.68;100535.97;5027593;28;20029;-29
2022/04/30 04:00:54;;;;;;;17.17;12.07;;;;;;;13.54;82.96;100520.81;5027233;28;20030;-33
2022/04/30 04:03:20;;;;;;;16.95;11.93;;;;;;;13.60;82.50;100530.63;5028987;28;20029;-29
2022/04/30 04:05:48;;;;;;;16.58;11.25;;;;;;;13.66;82.41;100531.59;5028775;28;20017;-29
2022/04/30 04:08:15;;;;;;;14.40;11.65;;;;;;;13.64;82.59;100533.69;5029168;28;20102;-31
2022/04/30 04:10:41;;;;;;;14.88;11.80;;;;;;;13.71;83.08;100522.84;5027417;28;20037;-30
2022/04/30 04:18:35;;;;;;;16.92;12.27;;;;;;;13.79;83.22;100541.28;5028824;28;20417;-31
2022/04/30 04:21:01;;;;;;;17.50;13.25;;;;;;;13.68;83.55;100540.22;5028615;28;20485;-29
2022/04/30 04:23:26;;;;;;;18.40;13.35;;;;;;;13.52;85.75;100527.44;5028791;28;20123;-31
2022/04/30 04:26:00;;;;;;;17.00;12.63;;;;;;;13.60;86.01;100537.84;5028675;28;20052;-29
2022/04/30 04:28:29;;;;;;;16.33;11.73;;;;;;;13.80;83.20;100532.22;5028431;28;20033;-31
2022/04/30 04:30:56;;;;;;;13.77;10.68;;;;;;;13.83;83.17;100523.69;5027993;28;20421;-29
2022/04/30 04:33:22;;;;;;;15.87;12.10;;;;;;;14.24;81.13;100549.69;5028547;28;20030;-31
2022/04/30 04:35:47;;;;;;;18.80;12.70;;;;;;;14.33;79.95;100544.78;5028232;28;20288;-29
2022/04/30 04:38:13;;;;;;;16.60;12.88;;;;;;;14.01;80.94;100536.22;5028420;28;20055;-31
2022/04/30 04:40:38;;;;;;;22.33;13.10;;;;;;;13.99;83.78;100546.38;5028051;28;20057;-30
2022/04/30 04:43:04;;;;;;;18.83;13.07;;;;;;;14.10;82.01;100542.06;5028115;28;20116;-30
2022/04/30 04:45:29;;;;;;;16.95;12.75;;;;;;;14.35;80.45;100550.75;5028021;28;20101;-30
2022/04/30 04:47:55;;;;;;;19.55;12.95;;;;;;;14.41;80.71;100539.09;5028442;28;20076;-29
2022/04/30 04:50:25;;;;;;;19.90;11.80;;;;;;;14.78;78.23;100549.63;5028026;28;20033;-31
2022/04/30 04:52:51;;;;;;;23.20;10.63;;;;;;;14.74;78.65;100543.09;5027818;28;20086;-35
2022/04/30 04:55:17;;;;;;;16.92;11.77;;;;;;;14.76;78.96;100548.22;5027886;28;20029;-30
2022/04/30 04:57:42;;;;;;;16.48;10.80;;;;;;;14.61;79.50;100556.75;5028230;28;20040;-29
2022/04/30 05:00:09;;;;;;;23.48;11.00;;;;;;;14.94;77.66;100550.78;5027631;28;20417;-29
2022/04/30 05:02:36;;;;;;;17.70;11.75;;;;;;;14.81;77.77;100526.84;5027174;28;20040;-29
2022/04/30 05:05:02;;;;;;;21.40;11.35;;;;;;;14.59;80.45;100532.81;5027405;28;20083;-30
2022/04/30 05:07:27;;;;;;;17.40;12.85;;;;;;;14.39;82.13;100533.13;5027556;28;20478;-31
2022/04/30 05:09:53;;;;;;;23.27;14.13;;;;;;;14.78;80.39;100560.34;5027531;28;20025;-34
2022/04/30 05:12:19;;;;;;;25.73;15.35;;;;;;;14.61;80.50;100548.69;5027624;28;20046;-29
2022/04/30 05:14:46;;;;;;;22.15;14.55;;;;;;;14.53;80.91;100546.34;5027096;28;20025;-29
2022/04/30 05:17:12;;;;;;;24.13;14.15;;;;;;;14.73;79.23;100560.25;5027547;28;20041;-30
2022/04/30 05:19:37;;;;;;;20.48;14.48;;;;;;;14.76;79.59;100554.41;5027434;28;20417;-29
2022/04/30 05:22:03;;;;;;;21.25;11.45;;;;;;;14.84;78.88;100559.41;5027539;28;20034;-30
2022/04/30 05:24:29;;;;;;;21.00;13.70;;;;;;;15.11;78.25;100564.28;5027177;28;20134;-28
2022/04/30 05:26:54;;;;;;;18.65;11.85;;;;;;;14.91;79.78;100571.91;5026941;28;20430;-28
2022/04/30 05:29:20;;;;;;;17.77;13.13;;;;;;;14.99;79.24;100568.84;5026940;28;20045;-30
2022/04/30 05:31:45;;;;;;;21.42;15.75;;;;;;;15.05;78.78;100565.22;5027202;28;20068;-34
2022/04/30 05:34:11;;;;;;;22.67;13.57;;;;;;;15.12;78.24;100565.09;5027535;28;20059;-29
2022/04/30 05:36:38;;;;;;;21.13;13.02;;;;;;;14.95;79.18;100575.75;5027261;28;20046;-32
2022/04/30 05:39:04;;;;;;;16.95;12.05;;;;;;;15.29;77.46;100559.81;5027440;28;20486;-29
2022/04/30 05:41:29;;;;;;;19.48;13.95;;;;;;;15.33;77.89;100575.22;5027022;28;20025;-29
2022/04/30 05:43:55;;;;;;;22.73;14.32;;;;;;;15.18;78.46;100581.09;5026849;28;20478;-31
2022/04/30 05:46:21;;;;;;;26.27;14.60;;;;;;;15.37;78.49;100572.88;5027133;28;20040;-29
2022/04/30 05:48:47;;;;;;;19.50;13.52;;;;;;;15.47;78.52;100579.28;5026895;28;20112;-29
2022/04/30 05:51:12;;;;;;;20.27;14.48;;;;;;;15.65;76.00;100580.97;5027431;28;20044;-31
2022/04/30 05:53:38;;;;;;;16.13;11.10;;;;;;;15.45;76.12;100562.56;5026795;28;20017;-30
2022/04/30 05:56:04;;;;;;;16.02;12.75;;;;;;;15.46;76.17;100582.19;5027473;28;20401;-28
2022/04/30 05:58:29;;;;;;;16.52;11.30;;;;;;;15.41;76.81;100584.78;5026733;28;20021;-30
2022/04/30 06:00:55;;;;;;;19.65;12.70;;;;;;;15.67;77.04;100559.19;5025524;28;20029;-29
2022/04/30 06:03:20;;;;;;;18.10;12.48;;;;;;;16.09;76.64;100579.63;5025743;28;20030;-29
2022/04/30 06:05:46;;;;;;;18.05;11.68;;;;;;;16.16;74.27;100588.34;5027082;28;20477;-29
2022/04/30 06:08:11;;;;;;;19.27;11.95;;;;;;;16.35;73.94;100581.69;5027039;28;20728;-29
2022/04/30 06:10:37;;;;;;;17.20;11.38;;;;;;;16.32;74.18;100579.47;5026748;28;20026;-37
2022/04/30 06:13:03;;;;;;;17.35;11.63;;;;;;;16.15;74.86;100594.78;5028189;28;20044;-29
2022/04/30 06:15:28;;;;;;;17.70;12.77;;;;;;;16.23;73.42;100580.94;5031132;28;20141;-32
2022/04/30 06:17:54;;;;;;;15.48;10.00;;;;;;;16.12;72.47;100569.19;5031073;28;20024;-30
2022/04/30 06:20:19;;;;;;;14.52;10.70;;;;;;;16.21;72.98;100583.06;5031152;28;20033;-29
2022/04/30 06:22:45;;;;;;;18.15;11.20;;;;;;;16.35;73.94;100588.94;5030492;28;20560;-29
2022/04/30 06:25:11;;;;;;;15.32;11.07;;;;;;;16.37;73.41;100579.56;5030842;28;20798;-29
2022/04/30 06:27:37;;;;;;;15.70;10.93;;;;;;;16.35;71.88;100586.25;5030270;28;20032;-29
2022/04/30 06:30:04;;;;;;;18.13;10.00;;;;;;;16.59;70.42;100584.19;5030810;28;20128;-29
2022/04/30 06:32:30;;;;;;;14.20;9.05;;;;;;;16.64;70.30;100570.81;5030569;28;20034;-31
2022/04/30 06:34:55;;;;;;;14.32;9.70;;;;;;;16.74;68.95;100576.34;5030195;28;20029;-29
2022/04/30 06:37:21;;;;;;;19.27;10.45;;;;;;;16.70;71.48;100585.97;5030159;28;20155;-30
2022/04/30 06:39:46;;;;;;;18.20;10.85;;;;;;;16.81;70.93;100577.00;5030414;28;20084;-29
2022/04/30 06:42:12;;;;;;;15.52;9.77;;;;;;;17.25;67.29;100585.16;5030050;28;20025;-29
2022/04/30 06:44:37;;;;;;;13.15;9.63;;;;;;;17.43;70.94;100584.03;5030414;28;20029;-31
2022/04/30 06:47:03;;;;;;;15.73;8.75;;;;;;;17.36;68.92;100577.19;5030206;28;20021;-29
2022/04/30 06:49:29;;;;;;;19.33;9.23;;;;;;;17.77;65.84;100580.34;5030285;28;20572;-29
2022/04/30 06:51:54;;;;;;;13.27;8.93;;;;;;;18.02;63.21;100572.53;5030075;28;20025;-31
2022/04/30 06:57:17;;;;;;;14.55;8.93;;;;;;;17.84;65.21;100559.41;5030119;28;20040;-31
2022/04/30 06:59:45;;;;;;;10.73;7.38;;;;;;;17.82;63.31;100565.03;5028853;28;20564;-30
2022/04/30 07:02:23;;;;;;;14.32;8.70;;;;;;;17.71;64.56;100560.59;5029882;28;20417;-30
2022/04/30 07:04:52;;;;;;;;;;;;;;;17.52;65.71;100576.28;5030352;28;20033;-31
2022/04/30 07:07:21;;;;;;;13.63;8.05;;;;;;;17.72;64.49;100572.22;5029694;28;20706;-30
2022/04/30 07:09:48;;;;;;;12.75;8.00;;;;;;;17.88;64.62;100557.84;5029980;28;20025;-28
2022/04/30 07:12:14;;;;;;;15.88;9.00;;;;;;;17.89;65.41;100559.44;5029941;28;20516;-29
2022/04/30 07:14:42;;;;;;;12.77;8.95;;;;;;;18.40;63.60;100567.97;5029747;28;20037;-30
2022/04/30 07:17:10;;;;;;;13.88;8.55;;;;;;;18.56;61.21;100557.31;5029759;28;20017;-30
2022/04/30 07:19:36;;;;;;;12.27;8.18;;;;;;;18.65;63.42;100555.72;5029431;28;20041;-29
2022/04/30 07:22:02;;;;;;;12.38;8.10;;;;;;;18.62;65.23;100559.75;5029389;28;20033;-30
2022/04/30 07:24:28;;;;;;;10.70;7.57;;;;;;;18.42;61.59;100556.94;5027382;28;20461;-30
2022/04/30 07:26:54;;;;;;;10.43;7.45;;;;;;;18.44;60.55;100581.78;5029260;28;20025;-29
2022/04/30 07:29:19;;;;;;;12.50;7.47;;;;;;;18.39;60.71;100563.66;5029428;28;20992;-28
2022/04/30 07:31:45;;;;;;;11.10;7.50;;;;;;;18.15;60.04;100559.69;5029424;28;20037;-29
2022/04/30 07:34:10;;;;;;;10.18;7.07;;;;;;;18.45;64.26;100568.03;5029414;28;20033;-30
2022/04/30 07:36:37;;;;;;;10.40;7.13;;;;;;;18.79;59.83;100556.91;5027924;28;20483;-35
2022/04/30 07:39:03;;;;;;;12.02;6.95;;;;;;;19.37;60.14;100566.91;5029392;28;20042;-29
2022/04/30 07:41:29;;;;;;;10.38;6.97;;;;;;;19.09;58.29;100574.38;5029284;28;20037;-29
2022/04/30 07:43:55;;;;;;;11.15;6.65;;;;;;;18.81;57.99;100560.19;5029366;28;20025;-30
2022/04/30 07:46:22;;;;;;;9.40;6.45;;;;;;;18.79;58.99;100566.91;5029345;28;20036;-29
2022/04/30 07:48:48;;;;;;;12.30;7.07;;;;;;;18.80;59.19;100553.16;5028654;28;20026;-29
2022/04/30 07:51:16;;;;;;;8.68;5.82;;;;;;;19.13;57.53;100567.38;5027545;28;20409;-29
2022/04/30 07:53:42;;;;;;;8.98;5.35;;;;;;;19.41;58.24;100557.19;5028987;28;20439;-29
2022/04/30 07:56:08;;;;;;;11.27;6.68;;;;;;;19.44;56.33;100572.91;5029018;28;20528;-29
2022/04/30 07:58:34;;;;;;;11.60;6.95;;;;;;;19.71;55.34;100550.28;5029043;28;20041;-31
2022/04/30 08:00:59;;;;;;;10.70;6.80;;;;;;;20.10;56.91;100566.81;5028759;28;20525;-29
2022/04/30 08:03:25;;;;;;;9.00;6.25;;;;;;;19.99;54.80;100554.38;5028545;28;20037;-33
2022/04/30 08:05:50;;;;;;;9.30;6.63;;;;;;;19.95;56.39;100559.50;5029144;28;20037;-29
2022/04/30 08:08:16;;;;;;;9.88;6.15;;;;;;;19.80;54.53;100559.50;5029016;28;20036;-35
2022/04/30 08:10:42;;;;;;;8.45;5.78;;;;;;;19.63;52.65;100563.19;5028662;28;20033;-29
2022/04/30 08:13:07;;;;;;;8.90;5.88;;;;;;;20.05;53.83;100564.94;5029112;28;20101;-30
2022/04/30 08:15:33;;;;;;;12.80;7.20;;;;;;;20.28;54.55;100555.44;5028804;28;20057;-31
2022/04/30 08:17:59;;;;;;;9.07;5.78;;;;;;;20.01;54.03;100561.13;5028546;28;20029;-32
2022/04/30 08:20:24;;;;;;;10.23;6.20;;;;;;;20.20;53.29;100566.03;5028633;28;20401;-34
2022/04/30 08:22:50;;;;;;;8.77;5.38;;;;;;;20.31;51.22;100554.13;5028276;28;20040;-29
2022/04/30 08:25:16;;;;;;;8.38;5.47;;;;;;;20.10;54.37;100547.06;5028490;28;20101;-29
2022/04/30 08:27:42;;;;;;;9.93;5.25;;;;;;;19.75;57.74;100556.78;5027257;28;20036;-29
2022/04/30 08:30:09;;;;;;;8.75;5.57;;;;;;;20.17;56.00;100550.34;5026868;28;20486;-33
2022/04/30 08:32:35;;;;;;;8.20;5.65;;;;;;;20.45;56.69;100535.38;5028532;28;20032;-32
2022/04/30 08:35:01;;;;;;;9.00;5.93;;;;;;;19.82;57.39;100544.63;5028149;28;20052;-28
2022/04/30 08:37:30;;;;;;;8.38;5.30;;;;;;;19.63;55.28;100548.88;5027170;28;20087;-30
2022/04/30 08:39:56;;;;;;;8.30;4.68;;;;;;;19.77;56.78;100549.19;5026526;28;20092;-30
2022/04/30 08:42:23;;;;;;;9.55;4.68;;;;;;;20.11;54.94;100544.09;5027939;28;20029;-30
2022/04/30 08:44:49;;;;;;;9.13;4.90;;;;;;;20.28;52.98;100539.19;5026528;28;20033;-29
2022/04/30 08:47:14;;;;;;;8.00;5.07;;;;;;;20.43;54.93;100540.28;5027753;28;20029;-29
2022/04/30 08:49:42;;;;;;;7.20;4.88;;;;;;;20.64;54.02;100530.25;5028267;28;20047;-29
2022/04/30 08:52:08;;;;;;;6.32;4.30;;;;;;;20.59;52.60;100527.53;5028254;28;20116;-30
2022/04/30 08:54:33;;;;;;;8.05;4.63;;;;;;;20.69;51.70;100530.22;5026826;28;20034;-30
2022/04/30 08:56:59;;;;;;;6.53;3.90;;;;;;;20.97;49.30;100528.00;5027793;28;20448;-30
2022/04/30 08:59:24;;;;;;;6.28;4.35;;;;;;;21.31;49.20;100544.38;5027931;28;20029;-29
2022/04/30 09:01:52;;;;;;;6.72;4.30;;;;;;;21.70;50.65;100534.69;5027483;28;20029;-29
2022/04/30 09:04:19;;;;;;;7.85;5.30;;;;;;;21.91;51.30;100530.75;5028002;28;20033;-29
2022/04/30 09:06:52;;;;;;;5.55;3.42;;;;;;;21.85;50.26;100535.41;5028154;28;20509;-29
2022/04/30 09:09:29;;;;;;;5.82;3.35;;;;;;;21.87;50.84;100521.53;5026500;28;20037;-30
2022/04/30 09:12:08;;;;;;;6.30;3.50;;;;;;;21.72;48.02;100524.34;5026141;28;20149;-29
2022/04/30 09:14:33;;;;;;;5.68;3.35;;;;;;;21.87;47.21;100510.69;5027823;28;20044;-29
2022/04/30 09:17:11;;;;;;;12.25;4.50;;;;;;;22.19;48.00;100512.03;5027569;28;20033;-32
2022/04/30 09:19:53;;;;;;;5.47;2.70;;;;;;;22.41;45.88;100517.84;5027553;28;20033;-30
2022/04/30 09:22:32;;;;;;;8.68;2.92;;;;;;;22.62;45.81;100513.00;5027607;28;20113;-32
2022/04/30 09:24:59;;;;;;;4.30;2.70;;;;;;;22.43;46.59;100504.78;5026158;28;20033;-32
2022/04/30 09:27:25;;;;;;;5.80;2.60;;;;;;;22.57;43.89;100498.66;5027403;28;20053;-29
2022/04/30 09:29:51;;;;;;;5.20;3.00;;;;;;;22.94;45.83;100510.72;5027482;28;20045;-31
2022/04/30 09:32:19;;;;;;;7.05;3.20;;;;;;;22.74;42.27;100512.59;5027423;28;20537;-32
2022/04/30 09:37:43;;;;;;;14.65;4.93;;;;;;;22.69;44.95;100504.50;5027024;28;20119;-30
2022/04/30 09:40:15;;;;;;;15.13;5.53;;;;;;;22.65;43.78;100506.16;5026817;28;20033;-29
2022/04/30 09:42:46;;;;;;;12.93;4.63;;;;;;;22.92;45.88;100499.34;5026449;28;20041;-33
2022/04/30 09:45:41;;;;;;;9.15;3.75;;;;;;;22.83;45.36;100502.69;5022707;28;20124;-34
2022/04/30 09:53:56;;;;;;;13.23;4.30;;;;;;;22.79;45.97;100477.19;5021400;28;20053;-29
2022/04/30 09:53:57;;;;;;;4.78;2.33;;;;;;;22.72;44.03;100468.59;5027284;28;20087;-32
2022/04/30 09:56:28;;;;;;;3.72;1.60;;;;;;;22.59;38.75;100480.16;5026848;28;20468;-30
2022/04/30 09:58:54;;;;;;;1.58;1.20;;;;;;;22.91;35.99;100470.53;5026893;28;20489;-29
2022/04/30 10:01:20;;;;;;;4.03;1.80;;;;;;;23.63;34.94;100482.03;5026990;28;20036;-29
2022/04/30 10:03:48;;;;;;;1.55;1.20;;;;;;;23.17;35.11;100480.00;5025557;28;20701;-29
2022/04/30 10:06:13;;;;;;;;;;;;;;;23.33;34.86;100474.34;5027202;28;20115;-33
2022/04/30 10:08:41;;;;;;;1.67;1.23;;;;;;;23.21;35.54;100475.59;5026958;28;20362;-32
2022/04/30 10:11:26;;;;;;;7.10;4.38;;;;;;;23.44;37.74;100476.63;5026818;28;20025;-31
2022/04/30 10:13:54;;;;;;;3.50;1.42;;;;;;;23.48;33.76;100474.13;5027379;28;20056;-29
2022/04/30 10:16:25;;;;;;;3.28;1.50;;;;;;;23.76;34.81;100452.44;5026915;28;20064;-30
2022/04/30 10:18:58;;;;;;;4.50;1.50;;;;;;;24.76;34.75;100463.72;5026628;28;20040;-32
2022/04/30 10:21:24;;;;;;;3.25;1.38;;;;;;;24.72;30.77;100481.78;5027084;28;20438;-29
2022/04/30 10:24:00;;;;;;;2.08;1.30;;;;;;;24.35;33.69;100472.66;5027078;28;20595;-33
2022/04/30 10:26:25;;;;;;;39.17;23.55;;;;;;;24.81;32.65;100451.91;5026857;28;20026;-32
2022/04/30 10:29:01;;;;;;;6.65;2.28;;;;;;;24.33;30.97;100446.84;5026611;28;20047;-29
2022/04/30 10:31:27;;;;;;;2.65;1.27;;;;;;;24.75;32.23;100459.38;5024957;28;20040;-31
2022/04/30 10:33:52;;;;;;;2.72;1.40;;;;;;;24.63;32.28;100440.81;5026772;28;20026;-31
2022/04/30 10:36:21;;;;;;;3.50;1.92;;;;;;;24.79;33.63;100454.94;5026655;28;20051;-33
2022/04/30 10:39:02;;;;;;;3.50;2.03;;;;;;;25.05;34.05;100448.94;5026744;28;20037;-29
2022/04/30 10:41:27;;;;;;;3.17;1.92;;;;;;;24.46;35.94;100449.56;5026750;28;20033;-32
2022/04/30 10:44:03;;;;;;;2.45;1.63;;;;;;;24.85;36.00;100456.44;5008354;28;20037;-31
2022/04/30 10:46:37;;;;;;;3.30;2.00;;;;;;;24.63;34.33;100448.19;5023416;28;20120;-32
2022/04/30 10:49:04;;;;;;;6.53;3.83;;;;;;;24.81;34.94;100441.81;5050384;28;20067;-30
2022/04/30 10:51:43;;;;;;;3.67;1.52;;;;;;;24.71;33.96;100450.19;5024935;28;20032;-34
2022/04/30 10:54:18;;;;;;;6.03;3.65;;;;;;;24.53;33.74;100445.66;5023609;28;20569;-29
2022/04/30 10:56:45;;;;;;;4.00;1.60;;;;;;;24.11;32.86;100433.88;5026386;28;20034;-30
2022/04/30 10:59:10;;;;;;;3.30;1.55;;;;;;;24.78;34.63;100434.22;5026632;28;20121;-32
2022/04/30 11:01:36;;;;;;;2.28;1.60;;;;;;;24.41;32.73;100436.03;5030105;28;20108;-32
2022/04/30 11:04:02;;;;;;;2.95;1.58;;;;;;;24.09;34.87;100436.09;5030210;28;20025;-30
2022/04/30 11:06:32;;;;;;;1.75;1.40;;;;;;;23.74;33.28;100427.41;5028397;28;20055;-31
2022/04/30 11:09:06;;;;;;;3.40;1.60;;;;;;;24.01;33.43;100449.31;5029577;28;20148;-29
2022/04/30 11:11:32;;;;;;;2.20;1.48;;;;;;;23.19;35.06;100431.56;5028715;28;20040;-30
2022/04/30 11:14:11;;;;;;;16.50;10.07;;;;;;;23.64;35.54;100445.56;5028580;28;20064;-32
2022/04/30 11:16:41;;;;;;;2.83;1.80;;;;;;;23.75;37.17;100434.50;5029601;28;20021;-38
2022/04/30 11:19:10;;;;;;;5.28;2.67;;;;;;;22.97;38.33;100428.56;5029543;28;20517;-33
2022/04/30 11:21:37;;;;;;;2.50;1.63;;;;;;;23.47;33.77;100424.31;5028236;28;20044;-32
2022/04/30 11:24:04;;;;;;;3.77;1.40;;;;;;;23.72;32.99;100429.63;5028305;28;20410;-30
2022/04/30 11:26:30;;;;;;;2.97;1.50;;;;;;;24.51;32.99;100417.91;5029963;28;20029;-30
2022/04/30 11:28:57;;;;;;;2.47;1.60;;;;;;;24.83;33.17;100425.13;5029271;28;20037;-29
2022/04/30 11:31:23;;;;;;;2.75;1.50;;;;;;;24.39;32.76;100426.53;5029690;28;20037;-28
2022/04/30 11:33:48;;;;;;;1.83;1.50;;;;;;;24.23;30.97;100428.75;5029385;28;20021;-33
2022/04/30 11:36:14;;;;;;;1.92;1.45;;;;;;;24.67;32.17;100428.19;5029381;28;20053;-30
2022/04/30 11:38:48;;;;;;;2.42;1.60;;;;;;;24.14;31.76;100414.22;5029423;28;20398;-32
2022/04/30 11:41:14;;;;;;;2.75;1.70;;;;;;;24.38;30.81;100403.94;5029670;28;20029;-30
2022/04/30 11:43:39;;;;;;;3.42;1.63;;;;;;;25.17;30.97;100419.19;5029367;28;20029;-30
2022/04/30 11:46:05;;;;;;;2.40;1.45;;;;;;;25.74;29.90;100398.72;5029394;28;20441;-30
2022/04/30 11:48:38;;;;;;;2.90;1.60;;;;;;;26.16;29.22;100415.69;5029120;28;20025;-30